메인 페이지
METAR-TAF:

METAR-TAF

공항 :

프린세스 줄리아나 국제공항

신트마르턴, 네덜란드령 안틸레스

위도: 18-03N, 경도: 063-07W, 고도: 4m

현재 날씨관측

예보는 3 시간 57분 전, 14:00시(UTC)에 발표되었습니다.
9kt
온도 31°C
습도 66%
기압 1017 hPa
시정 10km 이상
고도 1800ft 상공 구름 많음, 타워링 적운.

METAR: TNCM 251400Z 10009KT 9999 BKN018TCU 31/24 Q1017 NOSIG RMK A3004 TCU ALQDS

시각: 13:57 (17:57 UTC)

예보

예보는 33분 전, 17:24시(UTC)에 발표되었습니다.
예보 대상 시간: 25일 18시부터 26일 18시까지 (UTC)
12kt
시정: 10km
고도 1800ft 상공 구름 보통, 적란운.
고도 3500ft 상공 구름 많음
시계 내 뇌우
일시적
25일 18시부터 25일 22시까지 (UTC)
여러 방향의 바람 15kt, 순간 최대 풍속 24kt
시정: 6.4km
고도 1800ft 상공 구름 많음, 적란운.
고도 5000ft 상공 흐림
뇌우, 비
25일 2300시부터 (UTC)
9kt
시정: 10km
고도 2000ft 상공 구름 보통
고도 5000ft 상공 구름 보통
시계 내 소나기
26일 0300시부터 (UTC)
동북동10kt
시정: 10km
고도 1800ft 상공 구름 보통
고도 3500ft 상공 구름 많음
약한소나기
26일 1430시부터 (UTC)
14kt
시정: 10km
고도 2400ft 상공 구름 보통
고도 5000ft 상공 구름 보통

TAF: TNCM 251724Z 2518/2618 09012KT P6SM VCTS SCT018CB BKN035 TEMPO 2518/2522 VRB15G24KT 4SM TSRA BKN018CB OVC050 FM252300 08009KT P6SM VCSH SCT020 SCT050 FM260300 07010KT P6SM -SHRA SCT018 BKN035 FM261430 09014KT P6SM SCT024 SCT050

4,000개 이상의 공항 관측 자료 및 예보 (METAR 및 TAF 보고).

지도상에서 검색 가능한 기상관측소가 노란 점과 빨간 점으로 표시되어 있습니다.

기상관측소 명을 보려면 표시 위로 마우스를 이동하세요.

날씨 관측과 예보를 보려면 클릭하세요.

지도 변경 : 확대하려면 엑스 표시가 있는 녹색 버튼, 축소하려면 빼기 표시가 있는 녹색 버튼, 다음 페이지의 지도를 보려면 녹색 화살표를 클릭하세요.


METAR-TAF: